Time;durP1;ratioP1;P1;durP2;ratioP2;P2;SDS_P1;SDS_P2;PMS_P1;PMS_P2;Temp;Humidity;BMP_temperature;BMP_pressure;BME280_temperature;BME280_humidity;BME280_pressure;Samples;Min_cycle;Max_cycle;Signal;HPM_P1;HPM_P2
2022/12/08 00:01:05;;;;;;;1999.90;999.90;;;3.40;99.90;;;;;;5032886;28;20470;-70
2022/12/08 00:03:32;;;;;;;1999.90;999.90;;;3.40;99.90;;;;;;5036662;28;20458;-69
2022/12/08 00:11:28;;;;;;;1999.90;999.90;;;3.40;99.90;;;;;;5036738;28;20953;-69
2022/12/08 00:13:55;;;;;;;1999.90;999.90;;;3.40;99.90;;;;;;5037555;28;20463;-69
2022/12/08 00:16:22;;;;;;;1999.90;999.90;;;3.30;99.90;;;;;;5035737;28;20491;-69
2022/12/08 00:18:49;;;;;;;1999.90;999.90;;;3.30;99.90;;;;;;5037223;28;20459;-69
2022/12/08 00:21:16;;;;;;;1999.90;999.90;;;3.30;99.90;;;;;;5035246;28;20467;-69
2022/12/08 00:23:44;;;;;;;1999.90;999.90;;;3.30;99.90;;;;;;5036738;28;20460;-69
2022/12/08 00:26:11;;;;;;;1999.90;999.90;;;3.30;99.90;;;;;;5035315;28;20498;-69
2022/12/08 00:28:37;;;;;;;1999.90;999.90;;;3.30;99.90;;;;;;5036520;28;20459;-69
2022/12/08 00:31:08;;;;;;;1999.90;999.90;;;3.30;99.90;;;;;;5035604;28;20470;-68
2022/12/08 00:33:36;;;;;;;1999.90;999.90;;;3.30;99.90;;;;;;5034231;28;20463;-69
2022/12/08 00:36:06;;;;;;;1999.90;999.90;;;3.30;99.90;;;;;;5034356;28;20494;-69
2022/12/08 00:38:33;;;;;;;1999.90;999.90;;;3.30;99.90;;;;;;5034362;28;20818;-70
2022/12/08 00:41:01;;;;;;;1999.90;999.90;;;3.40;99.90;;;;;;5036120;28;20471;-69
2022/12/08 00:43:28;;;;;;;1999.90;999.90;;;3.50;99.90;;;;;;5034034;28;20987;-69
2022/12/08 00:45:54;;;;;;;1999.90;999.90;;;3.40;99.90;;;;;;5034646;28;20483;-68
2022/12/08 00:48:21;;;;;;;1999.90;999.90;;;3.40;99.90;;;;;;5032556;28;20459;-69
2022/12/08 00:50:48;;;;;;;1999.90;999.90;;;3.50;99.90;;;;;;5035559;28;20459;-69
2022/12/08 00:53:15;;;;;;;1999.90;999.90;;;3.70;99.90;;;;;;5034045;28;20470;-69
2022/12/08 00:55:43;;;;;;;1999.90;999.90;;;3.50;99.90;;;;;;5035781;28;20482;-69
2022/12/08 00:58:11;;;;;;;1999.90;999.90;;;3.40;99.90;;;;;;5035002;28;20465;-68
2022/12/08 01:00:40;;;;;;;1999.90;999.90;;;3.40;99.90;;;;;;5034938;28;20467;-69
2022/12/08 01:03:09;;;;;;;1999.90;999.90;;;3.30;99.90;;;;;;5033665;28;20473;-67
2022/12/08 01:05:35;;;;;;;1999.90;999.90;;;3.30;99.90;;;;;;5034346;28;20474;-69
2022/12/08 01:08:04;;;;;;;1999.90;999.90;;;3.30;99.90;;;;;;5029579;28;20498;-68
2022/12/08 01:10:31;;;;;;;1999.90;999.90;;;3.20;99.90;;;;;;5036199;28;20757;-66
2022/12/08 01:12:58;;;;;;;1999.90;999.90;;;3.30;99.90;;;;;;5036791;28;20474;-69
2022/12/08 01:15:26;;;;;;;1999.90;999.90;;;3.40;99.90;;;;;;5034243;28;20502;-69
2022/12/08 01:17:53;;;;;;;1999.90;999.90;;;3.50;99.90;;;;;;5058664;22;20511;-65
2022/12/08 01:20:20;;;;;;;1999.90;999.90;;;3.60;99.90;;;;;;5030319;28;20459;-68
2022/12/08 01:22:47;;;;;;;1999.90;999.90;;;3.60;99.90;;;;;;5033080;28;20466;-67
2022/12/08 01:25:13;;;;;;;1999.90;999.90;;;3.60;99.90;;;;;;5033777;28;20462;-67
2022/12/08 01:27:40;;;;;;;1999.90;999.90;;;3.70;99.90;;;;;;5033129;28;20475;-68
2022/12/08 01:30:09;;;;;;;1999.90;999.90;;;3.60;99.90;;;;;;5033791;28;20489;-67
2022/12/08 01:32:37;;;;;;;1999.90;999.90;;;3.60;99.90;;;;;;5032823;28;20466;-66
2022/12/08 01:35:04;;;;;;;1999.90;999.90;;;3.50;99.90;;;;;;5030220;28;20467;-67
2022/12/08 01:37:30;;;;;;;1999.90;999.90;;;3.50;99.90;;;;;;5031212;28;20479;-68
2022/12/08 01:39:57;;;;;;;1999.90;999.90;;;3.60;99.90;;;;;;5033113;28;20474;-66
2022/12/08 01:42:25;;;;;;;1999.90;999.90;;;3.60;99.90;;;;;;5039455;28;20475;-67
2022/12/08 01:44:58;;;;;;;1999.90;999.90;;;3.60;99.90;;;;;;5043222;28;20446;-67
2022/12/08 01:47:28;;;;;;;1999.90;999.90;;;3.60;99.90;;;;;;5035573;28;20489;-67
2022/12/08 01:49:57;;;;;;;1999.90;999.90;;;3.50;99.90;;;;;;5029675;28;20474;-67
2022/12/08 01:52:28;;;;;;;1999.90;999.90;;;3.60;99.90;;;;;;5030328;28;20466;-67
2022/12/08 01:55:00;;;;;;;1999.90;999.90;;;3.60;99.90;;;;;;5032514;28;20482;-67
2022/12/08 01:57:30;;;;;;;1999.90;999.90;;;3.60;99.90;;;;;;5031031;28;20474;-67
2022/12/08 02:00:02;;;;;;;1999.90;999.90;;;3.70;99.90;;;;;;5029145;28;20467;-67
2022/12/08 02:02:33;;;;;;;1999.90;999.90;;;3.60;99.90;;;;;;5030935;28;21279;-67
2022/12/08 02:05:02;;;;;;;1999.90;999.90;;;3.50;99.90;;;;;;5024718;28;20470;-68
2022/12/08 02:07:29;;;;;;;1999.90;999.90;;;3.40;99.90;;;;;;5028947;28;20510;-67
2022/12/08 02:09:56;;;;;;;1999.90;999.90;;;3.30;99.90;;;;;;5033042;28;20462;-67
2022/12/08 02:12:23;;;;;;;1999.90;999.90;;;3.40;99.90;;;;;;5032764;28;20463;-67
2022/12/08 02:14:49;;;;;;;1999.90;999.90;;;3.40;99.90;;;;;;5032568;28;20459;-67
2022/12/08 02:17:31;;;;;;;1999.90;999.90;;;3.40;99.90;;;;;;5030934;28;20497;-67
2022/12/08 02:20:36;;;;;;;1999.90;999.90;;;3.30;99.90;;;;;;5030594;28;20470;-67
2022/12/08 02:23:13;;;;;;;1999.90;999.90;;;3.30;99.90;;;;;;5024899;28;20474;-67
2022/12/08 02:25:52;;;;;;;1999.90;999.90;;;3.30;99.90;;;;;;5029848;28;20455;-67
2022/12/08 02:28:42;;;;;;;1999.90;999.90;;;3.30;99.90;;;;;;5031893;28;20494;-67
2022/12/08 02:31:22;;;;;;;1999.90;999.90;;;3.30;99.90;;;;;;5030705;28;20459;-67
2022/12/08 02:34:07;;;;;;;1999.90;999.90;;;3.30;99.90;;;;;;5029120;28;20955;-67
2022/12/08 02:36:41;;;;;;;1999.90;999.90;;;3.30;99.90;;;;;;5030091;28;20479;-67
2022/12/08 02:39:18;;;;;;;1999.90;999.90;;;3.20;99.90;;;;;;5032903;28;20459;-68
2022/12/08 02:41:52;;;;;;;1999.90;999.90;;;3.30;99.90;;;;;;5032340;28;20831;-67
2022/12/08 02:44:25;;;;;;;1999.90;999.90;;;3.20;99.90;;;;;;5032042;28;20470;-66
2022/12/08 02:46:55;;;;;;;1999.90;999.90;;;3.20;99.90;;;;;;5028378;28;20491;-67
2022/12/08 02:49:28;;;;;;;1999.90;999.90;;;3.30;99.90;;;;;;5032304;28;20454;-67
2022/12/08 02:52:04;;;;;;;1999.90;999.90;;;3.30;99.90;;;;;;5031777;28;20470;-67
2022/12/08 02:54:32;;;;;;;1999.90;999.90;;;3.30;99.90;;;;;;5028787;28;20471;-66
2022/12/08 02:57:17;;;;;;;1999.90;999.90;;;3.30;99.90;;;;;;5032766;28;21019;-67
2022/12/08 03:00:03;;;;;;;1999.90;999.90;;;3.30;99.90;;;;;;5030525;28;20455;-65
2022/12/08 03:02:41;;;;;;;1999.90;999.90;;;3.30;99.90;;;;;;5029916;28;20469;-67
2022/12/08 03:05:19;;;;;;;1999.90;999.90;;;3.30;99.90;;;;;;5030915;28;20463;-67
2022/12/08 03:07:53;;;;;;;1999.90;999.90;;;3.30;99.90;;;;;;5031401;28;20505;-68
2022/12/08 03:10:26;;;;;;;1999.90;999.90;;;3.30;99.90;;;;;;5033451;28;20993;-67
2022/12/08 03:12:58;;;;;;;1999.90;999.90;;;3.30;99.90;;;;;;5032027;28;20467;-67
2022/12/08 03:15:26;;;;;;;1999.90;999.90;;;3.20;99.90;;;;;;5027836;28;20466;-67
2022/12/08 03:17:57;;;;;;;1999.90;999.90;;;3.20;99.90;;;;;;5027425;28;21074;-67
2022/12/08 03:20:27;;;;;;;1999.90;999.90;;;3.20;99.90;;;;;;5032012;28;20467;-67
2022/12/08 03:22:57;;;;;;;1999.90;999.90;;;3.20;99.90;;;;;;5032255;28;20487;-67
2022/12/08 03:25:27;;;;;;;1999.90;999.90;;;3.10;99.90;;;;;;5032814;28;20465;-67
2022/12/08 03:27:54;;;;;;;1999.90;999.90;;;3.00;99.90;;;;;;5031139;28;20488;-67
2022/12/08 03:30:21;;;;;;;1999.90;999.90;;;3.10;99.90;;;;;;5027714;28;20467;-67
2022/12/08 03:32:54;;;;;;;1999.90;999.90;;;3.10;99.90;;;;;;5029121;28;20985;-68
2022/12/08 03:35:26;;;;;;;1999.90;999.90;;;3.10;99.90;;;;;;5032922;28;20469;-67
2022/12/08 03:38:02;;;;;;;1999.90;999.90;;;3.10;99.90;;;;;;5032750;28;20478;-67
2022/12/08 03:40:29;;;;;;;1999.90;999.90;;;3.10;99.90;;;;;;5029973;28;20464;-67
2022/12/08 03:42:55;;;;;;;1999.90;999.90;;;3.20;99.90;;;;;;5033318;28;20467;-67
2022/12/08 03:45:22;;;;;;;1999.90;999.90;;;3.20;99.90;;;;;;5025749;28;21129;-67
2022/12/08 03:47:49;;;;;;;1999.90;999.90;;;3.20;99.90;;;;;;5027038;28;20479;-67
2022/12/08 03:50:16;;;;;;;1999.90;999.90;;;3.20;99.90;;;;;;5034919;28;20467;-68
2022/12/08 03:52:44;;;;;;;1999.90;999.90;;;3.20;99.90;;;;;;5031264;28;20463;-67
2022/12/08 03:55:11;;;;;;;1999.90;999.90;;;3.20;99.90;;;;;;5032773;28;20856;-67
2022/12/08 03:57:37;;;;;;;1999.90;999.90;;;3.20;99.90;;;;;;5032547;28;20960;-67
2022/12/08 04:00:06;;;;;;;1999.90;999.90;;;3.20;99.90;;;;;;5029228;28;20832;-68
2022/12/08 04:02:33;;;;;;;1999.90;999.90;;;3.10;99.90;;;;;;5027177;28;20461;-67
2022/12/08 04:04:59;;;;;;;1999.90;999.90;;;3.20;99.90;;;;;;5031821;28;20713;-67
2022/12/08 04:07:26;;;;;;;1999.90;999.90;;;3.20;99.90;;;;;;5030277;28;20867;-67
2022/12/08 04:09:54;;;;;;;1999.90;999.90;;;3.20;99.90;;;;;;5030282;28;20459;-67
2022/12/08 04:12:21;;;;;;;1999.90;999.90;;;3.30;99.90;;;;;;5034930;28;20466;-66
2022/12/08 04:14:48;;;;;;;1999.90;999.90;;;3.30;99.90;;;;;;5028689;28;20463;-67
2022/12/08 04:17:14;;;;;;;1999.90;999.90;;;3.40;99.90;;;;;;5029771;28;20493;-68
2022/12/08 04:19:41;;;;;;;1999.90;999.90;;;3.40;99.90;;;;;;5032430;28;20463;-68
2022/12/08 04:22:08;;;;;;;1999.90;999.90;;;3.30;99.90;;;;;;5033784;28;20470;-67
2022/12/08 04:24:35;;;;;;;1999.90;999.90;;;3.30;99.90;;;;;;5032895;28;20454;-67
2022/12/08 04:27:03;;;;;;;1999.90;999.90;;;3.20;99.90;;;;;;5033353;28;20486;-67
2022/12/08 04:29:30;;;;;;;1999.90;999.90;;;3.30;99.90;;;;;;5029445;28;20545;-68
2022/12/08 04:31:56;;;;;;;1999.90;999.90;;;3.40;99.90;;;;;;5029303;28;20467;-67
2022/12/08 04:34:23;;;;;;;1999.90;999.90;;;3.40;99.90;;;;;;5031355;28;20454;-66
2022/12/08 04:36:50;;;;;;;1999.90;999.90;;;3.40;99.90;;;;;;5031691;28;20478;-67
2022/12/08 04:39:17;;;;;;;1999.90;999.90;;;3.40;99.90;;;;;;5035765;28;20454;-67
2022/12/08 04:41:44;;;;;;;1999.90;999.90;;;3.30;99.90;;;;;;5032862;28;20455;-67
2022/12/08 04:44:12;;;;;;;1999.90;999.90;;;3.30;99.90;;;;;;5030237;28;20470;-67
2022/12/08 04:46:38;;;;;;;1999.90;999.90;;;3.20;99.90;;;;;;5029430;28;20487;-68
2022/12/08 04:49:05;;;;;;;1999.90;999.90;;;3.10;99.90;;;;;;5034737;28;20857;-68
2022/12/08 04:51:32;;;;;;;1999.90;999.90;;;3.10;99.90;;;;;;5036906;28;20548;-67
2022/12/08 04:53:59;;;;;;;1999.90;999.90;;;3.00;99.90;;;;;;5035443;28;20534;-67
2022/12/08 04:56:25;;;;;;;1999.90;999.90;;;2.90;99.90;;;;;;5036337;28;20485;-67
2022/12/08 04:58:52;;;;;;;1999.90;999.90;;;2.90;99.90;;;;;;5033342;28;20470;-67
2022/12/08 05:01:20;;;;;;;1999.90;999.90;;;2.90;99.90;;;;;;5034920;28;20467;-68
2022/12/08 05:03:47;;;;;;;1999.90;999.90;;;3.00;99.90;;;;;;5036672;28;20493;-67
2022/12/08 05:06:14;;;;;;;1999.90;999.90;;;3.00;99.90;;;;;;5038103;28;20474;-67
2022/12/08 05:08:42;;;;;;;1999.90;999.90;;;2.90;99.90;;;;;;5036257;28;20483;-67
2022/12/08 05:11:11;;;;;;;1999.90;999.90;;;2.90;99.90;;;;;;5033628;28;20963;-69
2022/12/08 05:13:37;;;;;;;1999.90;999.90;;;2.80;99.90;;;;;;5031354;28;20462;-67
2022/12/08 05:16:06;;;;;;;1999.90;999.90;;;2.90;99.90;;;;;;5034277;28;20466;-66
2022/12/08 05:18:35;;;;;;;1999.90;999.90;;;3.00;99.90;;;;;;5036680;28;20997;-67
2022/12/08 05:21:01;;;;;;;1999.90;999.90;;;3.00;99.90;;;;;;5036286;28;20462;-68
2022/12/08 05:23:28;;;;;;;1999.90;999.90;;;3.10;99.90;;;;;;5036770;28;20458;-67
2022/12/08 05:25:55;;;;;;;1999.90;999.90;;;3.20;99.90;;;;;;5035215;28;20455;-67
2022/12/08 05:28:22;;;;;;;1999.90;999.90;;;3.30;99.90;;;;;;5030871;28;20487;-67
2022/12/08 05:30:49;;;;;;;1999.90;999.90;;;3.40;99.90;;;;;;5033241;28;20466;-66
2022/12/08 05:33:16;;;;;;;1999.90;999.90;;;3.40;99.90;;;;;;5039713;28;20474;-67
2022/12/08 05:35:44;;;;;;;1999.90;999.90;;;3.50;99.90;;;;;;5034708;28;20463;-67
2022/12/08 05:38:12;;;;;;;1999.90;999.90;;;3.50;99.90;;;;;;5037219;28;20997;-67
2022/12/08 05:40:40;;;;;;;1999.90;999.90;;;3.50;99.90;;;;;;5031615;28;20463;-67
2022/12/08 05:43:06;;;;;;;1999.90;999.90;;;3.50;99.90;;;;;;5032348;28;20459;-67
2022/12/08 05:45:33;;;;;;;1999.90;999.90;;;3.50;99.90;;;;;;5042232;28;20450;-67
2022/12/08 05:48:00;;;;;;;1999.90;999.90;;;3.60;99.90;;;;;;5042128;28;20483;-67
2022/12/08 05:50:27;;;;;;;1999.90;999.90;;;3.60;99.90;;;;;;5033698;28;20462;-66
2022/12/08 05:52:55;;;;;;;1999.90;999.90;;;3.60;99.90;;;;;;5036409;28;20462;-67
2022/12/08 05:55:21;;;;;;;1999.90;999.90;;;3.60;99.90;;;;;;5034492;28;20463;-67
2022/12/08 05:57:48;;;;;;;1999.90;999.90;;;3.60;99.90;;;;;;5029360;28;20482;-70
2022/12/08 06:00:16;;;;;;;1999.90;999.90;;;3.60;99.90;;;;;;5049630;28;20443;-67
2022/12/08 06:02:42;;;;;;;1999.90;999.90;;;3.60;99.90;;;;;;5055282;28;20461;-68
2022/12/08 06:05:09;;;;;;;1999.90;999.90;;;3.50;99.90;;;;;;5058384;28;20469;-68
2022/12/08 06:07:36;;;;;;;1999.90;999.90;;;3.50;99.90;;;;;;5057886;28;20482;-67
2022/12/08 06:10:06;;;;;;;1999.90;999.90;;;3.50;99.90;;;;;;5042159;28;20471;-67
2022/12/08 06:12:33;;;;;;;1999.90;999.90;;;3.40;99.90;;;;;;5029131;28;20959;-67
2022/12/08 06:14:59;;;;;;;1999.90;999.90;;;3.40;99.90;;;;;;5036488;28;20840;-67
2022/12/08 06:17:26;;;;;;;1999.90;999.90;;;3.40;99.90;;;;;;5034880;28;20840;-66
2022/12/08 06:19:53;;;;;;;1999.90;999.90;;;3.40;99.90;;;;;;5036135;28;20459;-67
2022/12/08 06:22:20;;;;;;;1999.90;999.90;;;3.30;99.90;;;;;;5039946;28;20455;-67
2022/12/08 06:24:46;;;;;;;1999.90;999.90;;;3.20;99.90;;;;;;5032094;28;20582;-67
2022/12/08 06:27:14;;;;;;;1999.90;999.90;;;3.20;99.90;;;;;;5030026;28;20474;-67
2022/12/08 06:29:41;;;;;;;1999.90;999.90;;;3.20;99.90;;;;;;5036821;28;20550;-67
2022/12/08 06:32:08;;;;;;;1999.90;999.90;;;3.10;99.90;;;;;;5036782;28;20463;-67
2022/12/08 06:34:35;;;;;;;1999.90;999.90;;;3.20;99.90;;;;;;5036789;28;20821;-67
2022/12/08 06:37:01;;;;;;;1999.90;999.90;;;3.30;99.90;;;;;;5036949;28;20490;-67
2022/12/08 06:39:28;;;;;;;1999.90;999.90;;;3.30;99.90;;;;;;5030629;28;20451;-66
2022/12/08 06:44:40;;;;;;;1999.90;999.90;;;3.40;99.90;;;;;;5027507;28;20473;-67
2022/12/08 06:47:07;;;;;;;1999.90;999.90;;;3.40;99.90;;;;;;5024551;28;20483;-66
2022/12/08 06:49:34;;;;;;;1999.90;999.90;;;3.40;99.90;;;;;;5023199;28;20476;-66
2022/12/08 06:52:01;;;;;;;1999.90;999.90;;;3.50;99.90;;;;;;5024758;28;20460;-66
2022/12/08 06:54:28;;;;;;;1999.90;999.90;;;3.60;99.90;;;;;;5024665;28;20943;-66
2022/12/08 06:56:54;;;;;;;1999.90;999.90;;;3.50;99.90;;;;;;5029435;28;20558;-67
2022/12/08 06:59:21;;;;;;;1999.90;999.90;;;3.50;99.90;;;;;;5035249;28;20462;-66
2022/12/08 07:01:49;;;;;;;1999.90;999.90;;;3.40;99.90;;;;;;5028425;28;20474;-67
2022/12/08 07:04:16;;;;;;;1999.90;999.90;;;3.50;99.90;;;;;;5033624;28;20455;-66
2022/12/08 07:06:43;;;;;;;1999.90;999.90;;;3.50;99.90;;;;;;5034765;28;20480;-66
2022/12/08 07:09:10;;;;;;;1999.90;999.90;;;3.50;99.90;;;;;;5037796;28;20490;-66
2022/12/08 07:11:38;;;;;;;1999.90;999.90;;;3.60;99.90;;;;;;5037964;28;20458;-66
2022/12/08 07:14:05;;;;;;;1999.90;999.90;;;3.60;99.90;;;;;;5031144;28;20846;-66
2022/12/08 07:16:31;;;;;;;1999.90;999.90;;;3.60;99.90;;;;;;5038439;28;20892;-66
2022/12/08 07:19:00;;;;;;;1999.90;999.90;;;3.50;99.90;;;;;;5035133;28;20463;-67
2022/12/08 07:21:27;;;;;;;1999.90;999.90;;;3.60;99.90;;;;;;5025625;28;20939;-67
2022/12/08 07:23:53;;;;;;;1999.90;999.90;;;3.60;99.90;;;;;;5034141;28;20467;-66
2022/12/08 07:26:20;;;;;;;1999.90;999.90;;;3.60;99.90;;;;;;5055121;22;20501;-68
2022/12/08 07:28:47;;;;;;;1999.90;999.90;;;3.70;99.90;;;;;;5043801;28;20484;-68
2022/12/08 07:31:19;;;;;;;1999.90;999.90;;;3.80;99.90;;;;;;5048646;28;20822;-68
2022/12/08 07:33:46;;;;;;;1999.90;999.90;;;3.80;99.90;;;;;;5046886;28;20546;-66
2022/12/08 07:36:14;;;;;;;1999.90;999.90;;;3.70;99.90;;;;;;5046652;28;20868;-69
2022/12/08 07:38:42;;;;;;;1999.90;999.90;;;3.80;99.90;;;;;;5048451;28;20938;-69
2022/12/08 07:41:12;;;;;;;1999.90;999.90;;;3.80;99.90;;;;;;5049891;28;20464;-66
2022/12/08 07:43:39;;;;;;;1999.90;999.90;;;3.80;99.90;;;;;;5050445;28;20467;-69
2022/12/08 07:46:06;;;;;;;1999.90;999.90;;;3.80;99.90;;;;;;5048739;28;20474;-69
2022/12/08 07:48:32;;;;;;;1999.90;999.90;;;3.90;99.90;;;;;;5049346;28;20474;-68
2022/12/08 07:51:03;;;;;;;1999.90;999.90;;;3.90;99.90;;;;;;5048219;28;20833;-69
2022/12/08 07:53:31;;;;;;;1999.90;999.90;;;4.00;99.90;;;;;;5048523;28;20876;-68
2022/12/08 07:55:59;;;;;;;1999.90;999.90;;;4.00;99.90;;;;;;5047995;28;20486;-69
2022/12/08 07:58:26;;;;;;;1999.90;999.90;;;4.00;99.90;;;;;;5049946;28;20455;-69
2022/12/08 08:00:53;;;;;;;1999.90;999.90;;;4.00;99.90;;;;;;5047826;28;20462;-69
2022/12/08 08:03:20;;;;;;;1999.90;999.90;;;4.10;99.90;;;;;;5049751;28;20454;-69
2022/12/08 08:05:48;;;;;;;1999.90;999.90;;;4.10;99.90;;;;;;5050479;28;20474;-69
2022/12/08 08:08:15;;;;;;;1999.90;999.90;;;4.20;99.90;;;;;;5052112;28;20480;-68
2022/12/08 08:10:45;;;;;;;1999.90;999.90;;;4.20;99.90;;;;;;5051662;28;20434;-68
2022/12/08 08:13:12;;;;;;;1999.90;999.90;;;4.10;99.90;;;;;;5051394;28;21124;-68
2022/12/08 08:15:39;;;;;;;1999.90;999.90;;;4.00;99.90;;;;;;5050956;28;20462;-68
2022/12/08 08:18:06;;;;;;;1999.90;999.90;;;4.10;99.90;;;;;;5051367;28;20434;-67
2022/12/08 08:20:33;;;;;;;1999.90;999.90;;;4.30;99.90;;;;;;5049959;28;20462;-68
2022/12/08 08:23:00;;;;;;;1999.90;999.90;;;4.10;99.90;;;;;;5052129;28;20461;-68
2022/12/08 08:25:27;;;;;;;1999.90;999.90;;;4.20;99.90;;;;;;5051298;28;20948;-70
2022/12/08 08:27:55;;;;;;;1999.90;999.90;;;4.20;99.90;;;;;;5055017;28;20768;-68
2022/12/08 08:30:22;;;;;;;1999.90;999.90;;;4.20;99.90;;;;;;5055081;28;20484;-68
2022/12/08 08:32:49;;;;;;;1999.90;999.90;;;4.30;99.90;;;;;;5054154;28;20462;-68
2022/12/08 08:35:17;;;;;;;1999.90;999.90;;;4.30;99.90;;;;;;5052795;28;20480;-64
2022/12/08 08:37:44;;;;;;;1999.90;999.90;;;4.30;99.90;;;;;;5054635;28;20822;-68
2022/12/08 08:40:11;;;;;;;1999.90;999.90;;;4.30;99.90;;;;;;5054682;28;20793;-67
2022/12/08 08:42:38;;;;;;;1999.90;999.90;;;4.30;99.90;;;;;;5053676;28;20442;-69
2022/12/08 08:45:07;;;;;;;1999.90;999.90;;;4.30;99.90;;;;;;5054400;28;20438;-68
2022/12/08 08:47:34;;;;;;;1999.90;999.90;;;4.40;99.90;;;;;;5053309;28;20835;-68
2022/12/08 08:50:00;;;;;;;1999.90;999.90;;;4.40;99.90;;;;;;5054481;28;20469;-70
2022/12/08 08:52:27;;;;;;;1999.90;999.90;;;4.40;99.90;;;;;;5053298;28;20453;-68
2022/12/08 08:54:54;;;;;;;1999.90;999.90;;;4.50;99.90;;;;;;5053828;28;20441;-68
2022/12/08 08:57:21;;;;;;;1999.90;999.90;;;4.50;99.90;;;;;;5054416;28;20458;-68
2022/12/08 08:59:47;;;;;;;1999.90;999.90;;;4.60;99.90;;;;;;5054694;28;20433;-68
2022/12/08 09:02:17;;;;;;;1999.90;999.90;;;4.50;99.90;;;;;;5053132;28;20469;-68
2022/12/08 09:04:45;;;;;;;1999.90;999.90;;;4.60;99.90;;;;;;5053295;28;20804;-71
2022/12/08 09:07:12;;;;;;;1999.90;999.90;;;4.60;99.90;;;;;;5050784;28;20484;-64
2022/12/08 09:09:39;;;;;;;1999.90;999.90;;;4.60;99.90;;;;;;5052741;28;20484;-68
2022/12/08 09:12:07;;;;;;;1999.90;999.90;;;4.70;99.90;;;;;;5055088;28;20449;-68
2022/12/08 09:14:34;;;;;;;1999.90;999.90;;;4.70;99.90;;;;;;5053093;28;20461;-68
2022/12/08 09:17:00;;;;;;;1999.90;999.90;;;4.70;99.90;;;;;;5053906;28;20458;-69
2022/12/08 09:19:29;;;;;;;1999.90;999.90;;;4.70;99.90;;;;;;5053886;28;20918;-68
2022/12/08 09:21:55;;;;;;;1999.90;999.90;;;4.70;99.90;;;;;;5051366;28;20786;-63
2022/12/08 09:24:22;;;;;;;1999.90;999.90;;;4.80;99.90;;;;;;5048413;28;20466;-65
2022/12/08 09:26:49;;;;;;;1999.90;999.90;;;4.70;99.90;;;;;;5042321;28;20722;-66
2022/12/08 09:29:16;;;;;;;1999.90;999.90;;;4.80;99.90;;;;;;5050287;28;20482;-67
2022/12/08 09:31:43;;;;;;;1999.90;999.90;;;4.80;99.90;;;;;;5050209;28;20942;-65
2022/12/08 09:34:11;;;;;;;1999.90;999.90;;;4.90;99.90;;;;;;5050625;28;20462;-67
2022/12/08 09:36:40;;;;;;;1999.90;999.90;;;5.00;99.90;;;;;;5050024;28;20489;-66
2022/12/08 09:39:07;;;;;;;1999.90;999.90;;;5.10;99.90;;;;;;5050270;28;20457;-68
2022/12/08 09:41:36;;;;;;;1999.90;999.90;;;5.20;99.90;;;;;;5051245;28;20454;-68
2022/12/08 09:44:14;;;;;;;1999.90;999.90;;;5.20;99.90;;;;;;5051566;28;20968;-66
2022/12/08 09:46:43;;;;;;;1999.90;999.90;;;5.10;99.90;;;;;;5046262;28;21119;-68
2022/12/08 09:49:15;;;;;;;1999.90;999.90;;;5.10;99.90;;;;;;5047080;28;20505;-68
2022/12/08 09:51:44;;;;;;;1999.90;999.90;;;5.20;99.90;;;;;;5053461;28;20445;-69
2022/12/08 09:54:16;;;;;;;1999.90;999.90;;;5.20;99.90;;;;;;5053903;28;20475;-67
2022/12/08 09:56:43;;;;;;;1999.90;999.90;;;5.10;99.90;;;;;;5054117;28;20974;-67
2022/12/08 09:59:22;;;;;;;1999.90;999.90;;;5.40;99.90;;;;;;5047518;28;20474;-68
2022/12/08 10:01:49;;;;;;;1999.90;999.90;;;5.20;99.90;;;;;;5044724;28;20454;-67
2022/12/08 10:04:22;;;;;;;1999.90;999.90;;;5.20;99.90;;;;;;5046469;28;20461;-68
2022/12/08 10:06:58;;;;;;;1999.90;999.90;;;5.20;99.90;;;;;;5049954;28;20478;-68
2022/12/08 10:09:35;;;;;;;1999.90;999.90;;;5.20;99.90;;;;;;5048690;28;20470;-67
2022/12/08 10:12:10;;;;;;;1999.90;999.90;;;5.30;99.90;;;;;;5049135;28;20461;-68
2022/12/08 10:14:42;;;;;;;1999.90;999.90;;;5.10;99.90;;;;;;5046866;28;20977;-67
2022/12/08 10:17:16;;;;;;;1999.90;999.90;;;5.00;99.90;;;;;;5045886;28;20474;-69
2022/12/08 10:19:44;;;;;;;1999.90;999.90;;;5.10;99.90;;;;;;5048435;28;20450;-67
2022/12/08 10:22:19;;;;;;;1999.90;999.90;;;5.00;99.90;;;;;;5049703;28;20821;-68
2022/12/08 10:24:53;;;;;;;1999.90;999.90;;;5.10;99.90;;;;;;5048439;28;20457;-68
2022/12/08 10:27:20;;;;;;;1999.90;999.90;;;5.10;99.90;;;;;;5050104;28;20481;-67
2022/12/08 10:29:47;;;;;;;1999.90;999.90;;;5.20;99.90;;;;;;5048217;28;20887;-68
2022/12/08 10:32:19;;;;;;;1999.90;999.90;;;5.30;99.90;;;;;;5045356;28;20939;-68
2022/12/08 10:35:00;;;;;;;1999.90;999.90;;;5.30;99.90;;;;;;5047778;28;20460;-68
2022/12/08 10:37:28;;;;;;;1999.90;999.90;;;5.40;99.90;;;;;;5048459;28;20486;-68
2022/12/08 10:40:00;;;;;;;1999.90;999.90;;;5.40;99.90;;;;;;5046179;28;20934;-67
2022/12/08 10:42:39;;;;;;;1999.90;999.90;;;5.40;99.90;;;;;;5047966;28;20965;-66
2022/12/08 10:45:23;;;;;;;1999.90;999.90;;;5.50;99.90;;;;;;5044200;28;20454;-68
2022/12/08 10:47:58;;;;;;;1999.90;999.90;;;5.40;99.90;;;;;;5047670;28;20481;-69
2022/12/08 10:50:30;;;;;;;1999.90;999.90;;;5.40;99.90;;;;;;5049900;28;20478;-68
2022/12/08 10:52:59;;;;;;;1999.90;999.90;;;5.50;99.90;;;;;;5042863;28;20454;-68
2022/12/08 10:55:27;;;;;;;1999.90;999.90;;;5.50;99.90;;;;;;5047682;28;20454;-69
2022/12/08 10:57:54;;;;;;;1999.90;999.90;;;5.50;99.90;;;;;;5048225;28;20462;-67
2022/12/08 11:00:24;;;;;;;1999.90;999.90;;;5.50;99.90;;;;;;5047963;28;20473;-67
2022/12/08 11:02:57;;;;;;;1999.90;999.90;;;5.40;99.90;;;;;;5050952;28;20477;-67
2022/12/08 11:05:28;;;;;;;1999.90;999.90;;;5.40;99.90;;;;;;5049067;28;20465;-69
2022/12/08 11:07:55;;;;;;;1999.90;999.90;;;5.20;99.90;;;;;;5047200;28;20459;-68
2022/12/08 11:10:33;;;;;;;1999.90;999.90;;;5.20;99.90;;;;;;5048333;28;20489;-68
2022/12/08 11:13:02;;;;;;;1999.90;999.90;;;5.10;99.90;;;;;;5048960;28;20511;-67
2022/12/08 11:15:35;;;;;;;1999.90;999.90;;;5.10;99.90;;;;;;5044941;28;21156;-68
2022/12/08 11:18:08;;;;;;;1999.90;999.90;;;5.00;99.90;;;;;;5045972;28;20556;-66
2022/12/08 11:20:40;;;;;;;1999.90;999.90;;;5.10;99.90;;;;;;5045504;28;20453;-64
2022/12/08 11:23:20;;;;;;;1999.90;999.90;;;5.10;99.90;;;;;;5050214;28;20507;-68
2022/12/08 11:25:49;;;;;;;1999.90;999.90;;;5.10;99.90;;;;;;5046716;28;20485;-67
2022/12/08 11:28:21;;;;;;;1999.90;999.90;;;5.20;99.90;;;;;;5048820;28;20499;-69
2022/12/08 11:30:54;;;;;;;1999.90;999.90;;;5.20;99.90;;;;;;5047839;28;20478;-68
2022/12/08 11:33:23;;;;;;;1999.90;999.90;;;5.20;99.90;;;;;;5048613;28;20470;-68
2022/12/08 11:35:55;;;;;;;1999.90;999.90;;;5.20;99.90;;;;;;5047255;28;20474;-68
2022/12/08 11:38:24;;;;;;;1999.90;999.90;;;5.20;99.90;;;;;;5046243;28;20454;-69
2022/12/08 11:40:56;;;;;;;1999.90;999.90;;;5.10;99.90;;;;;;5046519;28;20464;-68
2022/12/08 11:43:29;;;;;;;1999.90;999.90;;;5.00;99.90;;;;;;5047275;28;20458;-70
2022/12/08 11:45:59;;;;;;;1999.90;999.90;;;4.90;99.90;;;;;;5046546;28;20478;-68
2022/12/08 11:48:33;;;;;;;1999.90;999.90;;;4.80;99.90;;;;;;5044904;28;20497;-69
2022/12/08 11:51:05;;;;;;;1999.90;999.90;;;4.80;99.90;;;;;;5044989;28;21001;-68
2022/12/08 11:53:38;;;;;;;1999.90;999.90;;;4.80;99.90;;;;;;5044895;28;20454;-69
2022/12/08 11:56:12;;;;;;;1999.90;999.90;;;4.80;99.90;;;;;;5045990;28;20485;-69
2022/12/08 11:58:44;;;;;;;1999.90;999.90;;;4.80;99.90;;;;;;5048354;28;20454;-68
2022/12/08 12:01:18;;;;;;;1999.90;999.90;;;4.80;99.90;;;;;;5052202;28;20804;-68
2022/12/08 12:03:50;;;;;;;1999.90;999.90;;;4.80;99.90;;;;;;5053481;28;20972;-68
2022/12/08 12:06:39;;;;;;;1999.90;999.90;;;4.80;99.90;;;;;;5048620;28;20492;-67
2022/12/08 12:09:13;;;;;;;1999.90;999.90;;;4.90;99.90;;;;;;5055214;28;20430;-68
2022/12/08 12:12:15;;;;;;;1999.90;999.90;;;5.00;99.90;;;;;;5055560;28;20429;-68
2022/12/08 12:14:57;;;;;;;1999.90;999.90;;;5.00;99.90;;;;;;5054850;28;20433;-68
2022/12/08 12:17:40;;;;;;;1999.90;999.90;;;5.10;99.90;;;;;;5055143;28;20466;-68
2022/12/08 12:20:15;;;;;;;1999.90;999.90;;;5.10;99.90;;;;;;5054121;28;20437;-69
2022/12/08 12:22:44;;;;;;;1999.90;999.90;;;5.20;99.90;;;;;;5054239;28;20817;-68
2022/12/08 12:25:17;;;;;;;1999.90;999.90;;;5.10;99.90;;;;;;5054302;28;20430;-68
2022/12/08 12:27:48;;;;;;;1999.90;999.90;;;5.20;99.90;;;;;;5054932;28;20426;-69